sensor_id;sensor_type;location;lat;lon;timestamp;temperature;humidity
25342;DHT22;13298;48.792;9.154;2023-05-07T00:01:40;13.50;99.90
25342;DHT22;13298;48.792;9.154;2023-05-07T00:04:06;13.50;99.90
25342;DHT22;13298;48.792;9.154;2023-05-07T00:06:32;13.50;99.90
25342;DHT22;13298;48.792;9.154;2023-05-07T00:08:58;13.50;99.90
25342;DHT22;13298;48.792;9.154;2023-05-07T00:11:25;13.50;99.90
25342;DHT22;13298;48.792;9.154;2023-05-07T00:13:51;13.40;99.90
25342;DHT22;13298;48.792;9.154;2023-05-07T00:16:17;13.40;99.90
25342;DHT22;13298;48.792;9.154;2023-05-07T00:18:42;13.30;99.90
25342;DHT22;13298;48.792;9.154;2023-05-07T00:21:08;13.20;99.90
25342;DHT22;13298;48.792;9.154;2023-05-07T00:23:34;13.20;99.90
25342;DHT22;13298;48.792;9.154;2023-05-07T00:25:59;13.10;99.90
25342;DHT22;13298;48.792;9.154;2023-05-07T00:28:25;13.10;99.90
25342;DHT22;13298;48.792;9.154;2023-05-07T00:30:51;13.10;99.90
25342;DHT22;13298;48.792;9.154;2023-05-07T00:33:17;13.00;99.90
25342;DHT22;13298;48.792;9.154;2023-05-07T00:35:42;13.00;99.90
25342;DHT22;13298;48.792;9.154;2023-05-07T00:38:08;12.90;99.90
25342;DHT22;13298;48.792;9.154;2023-05-07T00:40:34;12.80;99.90
25342;DHT22;13298;48.792;9.154;2023-05-07T00:43:00;12.80;99.90
25342;DHT22;13298;48.792;9.154;2023-05-07T00:45:26;12.80;99.90
25342;DHT22;13298;48.792;9.154;2023-05-07T00:47:57;12.70;99.90
25342;DHT22;13298;48.792;9.154;2023-05-07T00:50:26;12.70;99.90
25342;DHT22;13298;48.792;9.154;2023-05-07T00:52:52;12.70;99.90
25342;DHT22;13298;48.792;9.154;2023-05-07T00:55:18;12.60;99.90
25342;DHT22;13298;48.792;9.154;2023-05-07T00:57:45;12.60;99.90
25342;DHT22;13298;48.792;9.154;2023-05-07T01:00:12;12.60;99.90
25342;DHT22;13298;48.792;9.154;2023-05-07T01:02:38;12.60;99.90
25342;DHT22;13298;48.792;9.154;2023-05-07T01:05:06;12.60;99.90
25342;DHT22;13298;48.792;9.154;2023-05-07T01:07:37;12.60;99.90
25342;DHT22;13298;48.792;9.154;2023-05-07T01:10:05;12.60;99.90
25342;DHT22;13298;48.792;9.154;2023-05-07T01:12:32;12.60;99.90
25342;DHT22;13298;48.792;9.154;2023-05-07T01:14:58;12.60;99.90
25342;DHT22;13298;48.792;9.154;2023-05-07T01:17:24;12.60;99.90
25342;DHT22;13298;48.792;9.154;2023-05-07T01:19:50;12.60;99.90
25342;DHT22;13298;48.792;9.154;2023-05-07T01:22:30;12.50;99.90
25342;DHT22;13298;48.792;9.154;2023-05-07T01:24:57;12.50;99.90
25342;DHT22;13298;48.792;9.154;2023-05-07T01:27:25;12.50;99.90
25342;DHT22;13298;48.792;9.154;2023-05-07T01:29:51;12.40;99.90
25342;DHT22;13298;48.792;9.154;2023-05-07T01:32:21;12.40;99.90
25342;DHT22;13298;48.792;9.154;2023-05-07T01:34:49;12.40;99.90
25342;DHT22;13298;48.792;9.154;2023-05-07T01:37:16;12.40;99.90
25342;DHT22;13298;48.792;9.154;2023-05-07T01:39:56;12.40;99.90
25342;DHT22;13298;48.792;9.154;2023-05-07T01:42:22;12.40;99.90
25342;DHT22;13298;48.792;9.154;2023-05-07T01:44:47;12.30;99.90
25342;DHT22;13298;48.792;9.154;2023-05-07T01:47:14;12.30;99.90
25342;DHT22;13298;48.792;9.154;2023-05-07T01:49:41;12.30;99.90
25342;DHT22;13298;48.792;9.154;2023-05-07T01:52:07;12.40;99.90
25342;DHT22;13298;48.792;9.154;2023-05-07T01:54:33;12.40;99.90
25342;DHT22;13298;48.792;9.154;2023-05-07T01:56:59;12.40;99.90
25342;DHT22;13298;48.792;9.154;2023-05-07T01:59:25;12.40;99.90
25342;DHT22;13298;48.792;9.154;2023-05-07T02:01:51;12.50;99.90
25342;DHT22;13298;48.792;9.154;2023-05-07T02:04:17;12.50;99.90
25342;DHT22;13298;48.792;9.154;2023-05-07T02:06:43;12.50;99.90
25342;DHT22;13298;48.792;9.154;2023-05-07T02:09:09;12.50;99.90
25342;DHT22;13298;48.792;9.154;2023-05-07T02:11:34;12.50;99.90
25342;DHT22;13298;48.792;9.154;2023-05-07T02:14:00;12.50;99.90
25342;DHT22;13298;48.792;9.154;2023-05-07T02:16:26;12.50;99.90
25342;DHT22;13298;48.792;9.154;2023-05-07T02:18:51;12.50;99.90
25342;DHT22;13298;48.792;9.154;2023-05-07T02:21:17;12.50;99.90
25342;DHT22;13298;48.792;9.154;2023-05-07T02:23:43;12.50;99.90
25342;DHT22;13298;48.792;9.154;2023-05-07T02:26:09;12.50;99.90
25342;DHT22;13298;48.792;9.154;2023-05-07T02:28:36;12.50;99.90
25342;DHT22;13298;48.792;9.154;2023-05-07T02:31:04;12.50;99.90
25342;DHT22;13298;48.792;9.154;2023-05-07T02:33:30;12.50;99.90
25342;DHT22;13298;48.792;9.154;2023-05-07T02:35:56;12.40;99.90
25342;DHT22;13298;48.792;9.154;2023-05-07T02:38:22;12.40;99.90
25342;DHT22;13298;48.792;9.154;2023-05-07T02:40:48;12.40;99.90
25342;DHT22;13298;48.792;9.154;2023-05-07T02:43:14;12.30;99.90
25342;DHT22;13298;48.792;9.154;2023-05-07T02:45:40;12.20;99.90
25342;DHT22;13298;48.792;9.154;2023-05-07T02:48:05;12.20;99.90
25342;DHT22;13298;48.792;9.154;2023-05-07T02:50:31;12.10;99.90
25342;DHT22;13298;48.792;9.154;2023-05-07T02:52:58;12.00;99.90
25342;DHT22;13298;48.792;9.154;2023-05-07T02:55:23;12.00;99.90
25342;DHT22;13298;48.792;9.154;2023-05-07T02:57:49;11.90;99.90
25342;DHT22;13298;48.792;9.154;2023-05-07T03:00:17;11.90;99.90
25342;DHT22;13298;48.792;9.154;2023-05-07T03:02:44;11.90;99.90
25342;DHT22;13298;48.792;9.154;2023-05-07T03:05:10;11.80;99.90
25342;DHT22;13298;48.792;9.154;2023-05-07T03:07:37;11.80;99.90
25342;DHT22;13298;48.792;9.154;2023-05-07T03:10:03;11.80;99.90
25342;DHT22;13298;48.792;9.154;2023-05-07T03:12:29;11.80;99.90
25342;DHT22;13298;48.792;9.154;2023-05-07T03:14:55;11.70;99.90
25342;DHT22;13298;48.792;9.154;2023-05-07T03:17:21;11.70;99.90
25342;DHT22;13298;48.792;9.154;2023-05-07T03:19:47;11.70;99.90
25342;DHT22;13298;48.792;9.154;2023-05-07T03:22:13;11.60;99.90
25342;DHT22;13298;48.792;9.154;2023-05-07T03:24:38;11.60;99.90
25342;DHT22;13298;48.792;9.154;2023-05-07T03:27:04;11.60;99.90
25342;DHT22;13298;48.792;9.154;2023-05-07T03:29:30;11.60;99.90
25342;DHT22;13298;48.792;9.154;2023-05-07T03:31:55;11.50;99.90
25342;DHT22;13298;48.792;9.154;2023-05-07T03:34:21;11.50;99.90
25342;DHT22;13298;48.792;9.154;2023-05-07T03:36:50;11.50;99.90
25342;DHT22;13298;48.792;9.154;2023-05-07T03:39:16;11.40;99.90
25342;DHT22;13298;48.792;9.154;2023-05-07T03:41:42;11.40;99.90
25342;DHT22;13298;48.792;9.154;2023-05-07T03:44:08;11.40;99.90
25342;DHT22;13298;48.792;9.154;2023-05-07T03:46:34;11.40;99.90
25342;DHT22;13298;48.792;9.154;2023-05-07T03:49:00;11.40;99.90
25342;DHT22;13298;48.792;9.154;2023-05-07T03:51:25;11.40;99.90
25342;DHT22;13298;48.792;9.154;2023-05-07T03:53:52;11.30;99.90
25342;DHT22;13298;48.792;9.154;2023-05-07T03:56:22;11.30;99.90
25342;DHT22;13298;48.792;9.154;2023-05-07T03:58:52;11.30;99.90
25342;DHT22;13298;48.792;9.154;2023-05-07T04:01:17;11.30;99.90
25342;DHT22;13298;48.792;9.154;2023-05-07T04:03:43;11.30;99.90
25342;DHT22;13298;48.792;9.154;2023-05-07T04:06:09;11.30;99.90
25342;DHT22;13298;48.792;9.154;2023-05-07T04:08:35;11.40;99.90
25342;DHT22;13298;48.792;9.154;2023-05-07T04:11:00;11.40;99.90
25342;DHT22;13298;48.792;9.154;2023-05-07T04:13:26;11.40;99.90
25342;DHT22;13298;48.792;9.154;2023-05-07T04:15:52;11.40;99.90
25342;DHT22;13298;48.792;9.154;2023-05-07T04:18:19;11.50;99.90
25342;DHT22;13298;48.792;9.154;2023-05-07T04:20:45;11.50;99.90
25342;DHT22;13298;48.792;9.154;2023-05-07T04:23:11;11.50;99.90
25342;DHT22;13298;48.792;9.154;2023-05-07T04:25:36;11.50;99.90
25342;DHT22;13298;48.792;9.154;2023-05-07T04:28:02;11.60;99.90
25342;DHT22;13298;48.792;9.154;2023-05-07T04:30:28;11.60;99.90
25342;DHT22;13298;48.792;9.154;2023-05-07T04:32:53;11.60;99.90
25342;DHT22;13298;48.792;9.154;2023-05-07T04:35:19;11.60;99.90
25342;DHT22;13298;48.792;9.154;2023-05-07T04:37:45;11.70;99.90
25342;DHT22;13298;48.792;9.154;2023-05-07T04:40:11;11.80;99.90
25342;DHT22;13298;48.792;9.154;2023-05-07T04:42:36;11.80;99.90
25342;DHT22;13298;48.792;9.154;2023-05-07T04:45:03;11.90;99.90
25342;DHT22;13298;48.792;9.154;2023-05-07T04:47:30;11.90;99.90
25342;DHT22;13298;48.792;9.154;2023-05-07T04:49:55;12.00;99.90
25342;DHT22;13298;48.792;9.154;2023-05-07T04:52:22;12.10;99.90
25342;DHT22;13298;48.792;9.154;2023-05-07T04:54:48;12.10;99.90
25342;DHT22;13298;48.792;9.154;2023-05-07T04:57:13;12.10;99.90
25342;DHT22;13298;48.792;9.154;2023-05-07T04:59:39;12.10;99.90
25342;DHT22;13298;48.792;9.154;2023-05-07T05:02:05;12.10;99.90
25342;DHT22;13298;48.792;9.154;2023-05-07T05:04:31;12.10;99.90
25342;DHT22;13298;48.792;9.154;2023-05-07T05:06:57;12.10;99.90
25342;DHT22;13298;48.792;9.154;2023-05-07T05:09:23;12.10;99.90
25342;DHT22;13298;48.792;9.154;2023-05-07T05:11:48;12.10;99.90
25342;DHT22;13298;48.792;9.154;2023-05-07T05:14:14;12.10;99.90
25342;DHT22;13298;48.792;9.154;2023-05-07T05:16:40;12.10;99.90
25342;DHT22;13298;48.792;9.154;2023-05-07T05:19:05;12.20;99.90
25342;DHT22;13298;48.792;9.154;2023-05-07T05:21:32;12.30;99.90
25342;DHT22;13298;48.792;9.154;2023-05-07T05:23:58;12.30;99.90
25342;DHT22;13298;48.792;9.154;2023-05-07T05:26:23;12.50;99.90
25342;DHT22;13298;48.792;9.154;2023-05-07T05:28:49;12.60;99.90
25342;DHT22;13298;48.792;9.154;2023-05-07T05:31:16;12.70;99.90
25342;DHT22;13298;48.792;9.154;2023-05-07T05:33:42;12.90;99.90
25342;DHT22;13298;48.792;9.154;2023-05-07T05:36:09;13.10;99.90
25342;DHT22;13298;48.792;9.154;2023-05-07T05:38:36;13.20;99.90
25342;DHT22;13298;48.792;9.154;2023-05-07T05:41:01;13.40;99.90
25342;DHT22;13298;48.792;9.154;2023-05-07T05:43:27;13.50;99.90
25342;DHT22;13298;48.792;9.154;2023-05-07T05:45:53;13.70;99.90
25342;DHT22;13298;48.792;9.154;2023-05-07T05:48:19;13.90;99.90
25342;DHT22;13298;48.792;9.154;2023-05-07T05:50:44;13.90;99.90
25342;DHT22;13298;48.792;9.154;2023-05-07T05:53:10;13.90;99.90
25342;DHT22;13298;48.792;9.154;2023-05-07T05:55:36;13.90;99.90
25342;DHT22;13298;48.792;9.154;2023-05-07T05:58:02;13.90;99.90
25342;DHT22;13298;48.792;9.154;2023-05-07T06:00:28;14.00;99.90
25342;DHT22;13298;48.792;9.154;2023-05-07T06:02:54;14.10;99.90
25342;DHT22;13298;48.792;9.154;2023-05-07T06:05:20;14.30;99.90
25342;DHT22;13298;48.792;9.154;2023-05-07T06:07:45;14.50;99.90
25342;DHT22;13298;48.792;9.154;2023-05-07T06:10:11;14.70;99.90
25342;DHT22;13298;48.792;9.154;2023-05-07T06:12:37;14.90;99.90
25342;DHT22;13298;48.792;9.154;2023-05-07T06:15:03;15.00;99.90
25342;DHT22;13298;48.792;9.154;2023-05-07T06:17:29;15.00;99.90
25342;DHT22;13298;48.792;9.154;2023-05-07T06:19:55;14.90;99.90
25342;DHT22;13298;48.792;9.154;2023-05-07T06:22:21;14.80;99.90
25342;DHT22;13298;48.792;9.154;2023-05-07T06:24:47;14.70;99.90
25342;DHT22;13298;48.792;9.154;2023-05-07T06:27:12;14.50;99.90
25342;DHT22;13298;48.792;9.154;2023-05-07T06:29:38;14.50;99.90
25342;DHT22;13298;48.792;9.154;2023-05-07T06:32:08;14.50;99.90
25342;DHT22;13298;48.792;9.154;2023-05-07T06:34:34;14.40;99.90
25342;DHT22;13298;48.792;9.154;2023-05-07T06:39:25;14.50;99.90
25342;DHT22;13298;48.792;9.154;2023-05-07T06:41:50;14.60;99.90
25342;DHT22;13298;48.792;9.154;2023-05-07T06:44:16;14.70;99.90
25342;DHT22;13298;48.792;9.154;2023-05-07T06:46:42;14.90;99.90
25342;DHT22;13298;48.792;9.154;2023-05-07T06:49:07;14.90;99.90
25342;DHT22;13298;48.792;9.154;2023-05-07T06:51:33;15.10;99.90
25342;DHT22;13298;48.792;9.154;2023-05-07T06:53:59;15.30;99.90
25342;DHT22;13298;48.792;9.154;2023-05-07T06:56:25;15.60;99.90
25342;DHT22;13298;48.792;9.154;2023-05-07T06:58:51;15.80;99.90
25342;DHT22;13298;48.792;9.154;2023-05-07T07:01:16;16.10;99.90
25342;DHT22;13298;48.792;9.154;2023-05-07T07:03:42;16.40;99.90
25342;DHT22;13298;48.792;9.154;2023-05-07T07:06:08;16.70;99.90
25342;DHT22;13298;48.792;9.154;2023-05-07T07:08:33;16.90;99.90
25342;DHT22;13298;48.792;9.154;2023-05-07T07:11:00;17.20;99.90
25342;DHT22;13298;48.792;9.154;2023-05-07T07:13:25;17.50;99.90
25342;DHT22;13298;48.792;9.154;2023-05-07T07:15:52;17.70;99.90
25342;DHT22;13298;48.792;9.154;2023-05-07T07:18:18;17.90;99.90
25342;DHT22;13298;48.792;9.154;2023-05-07T07:20:44;18.10;99.90
25342;DHT22;13298;48.792;9.154;2023-05-07T07:23:10;18.20;99.90
25342;DHT22;13298;48.792;9.154;2023-05-07T07:25:35;18.40;99.90
25342;DHT22;13298;48.792;9.154;2023-05-07T07:28:01;18.60;99.90
25342;DHT22;13298;48.792;9.154;2023-05-07T07:30:27;18.90;99.90
25342;DHT22;13298;48.792;9.154;2023-05-07T07:32:53;19.20;99.90
25342;DHT22;13298;48.792;9.154;2023-05-07T07:35:19;19.40;99.90
25342;DHT22;13298;48.792;9.154;2023-05-07T07:37:44;19.60;99.90
25342;DHT22;13298;48.792;9.154;2023-05-07T07:40:11;19.80;99.90
25342;DHT22;13298;48.792;9.154;2023-05-07T07:42:37;20.00;99.90
25342;DHT22;13298;48.792;9.154;2023-05-07T07:45:03;20.20;99.90
25342;DHT22;13298;48.792;9.154;2023-05-07T07:47:29;20.50;99.90
25342;DHT22;13298;48.792;9.154;2023-05-07T07:49:55;20.70;99.90
25342;DHT22;13298;48.792;9.154;2023-05-07T07:52:20;20.80;99.90
25342;DHT22;13298;48.792;9.154;2023-05-07T07:54:46;21.00;99.90
25342;DHT22;13298;48.792;9.154;2023-05-07T07:57:12;21.10;99.90
25342;DHT22;13298;48.792;9.154;2023-05-07T07:59:37;21.20;99.90
25342;DHT22;13298;48.792;9.154;2023-05-07T08:02:03;21.30;99.90
25342;DHT22;13298;48.792;9.154;2023-05-07T08:04:29;21.30;99.90
25342;DHT22;13298;48.792;9.154;2023-05-07T08:06:55;21.20;99.90
25342;DHT22;13298;48.792;9.154;2023-05-07T08:09:21;21.30;99.90
25342;DHT22;13298;48.792;9.154;2023-05-07T08:11:47;21.30;99.90
25342;DHT22;13298;48.792;9.154;2023-05-07T08:14:12;21.40;99.90
25342;DHT22;13298;48.792;9.154;2023-05-07T08:16:38;21.40;99.90
25342;DHT22;13298;48.792;9.154;2023-05-07T08:19:04;21.40;99.90
25342;DHT22;13298;48.792;9.154;2023-05-07T08:21:30;21.50;99.90
25342;DHT22;13298;48.792;9.154;2023-05-07T08:23:56;21.40;99.90
25342;DHT22;13298;48.792;9.154;2023-05-07T08:26:21;21.40;99.90
25342;DHT22;13298;48.792;9.154;2023-05-07T08:28:47;21.50;99.90
25342;DHT22;13298;48.792;9.154;2023-05-07T08:31:13;21.60;99.90
25342;DHT22;13298;48.792;9.154;2023-05-07T08:33:39;21.70;99.90
25342;DHT22;13298;48.792;9.154;2023-05-07T08:36:05;21.50;99.90
25342;DHT22;13298;48.792;9.154;2023-05-07T08:38:31;21.40;99.90
25342;DHT22;13298;48.792;9.154;2023-05-07T08:40:56;21.20;99.90
25342;DHT22;13298;48.792;9.154;2023-05-07T08:43:26;21.10;99.90
25342;DHT22;13298;48.792;9.154;2023-05-07T08:45:54;21.10;99.90
25342;DHT22;13298;48.792;9.154;2023-05-07T08:48:22;21.00;99.90
25342;DHT22;13298;48.792;9.154;2023-05-07T08:50:50;21.10;99.90
25342;DHT22;13298;48.792;9.154;2023-05-07T08:53:16;21.10;99.90
25342;DHT22;13298;48.792;9.154;2023-05-07T08:55:42;21.20;99.90
25342;DHT22;13298;48.792;9.154;2023-05-07T08:58:08;21.40;99.90
25342;DHT22;13298;48.792;9.154;2023-05-07T09:00:35;21.50;99.90
25342;DHT22;13298;48.792;9.154;2023-05-07T09:03:01;21.60;99.90
25342;DHT22;13298;48.792;9.154;2023-05-07T09:05:27;21.80;99.90
25342;DHT22;13298;48.792;9.154;2023-05-07T09:07:53;21.80;99.90
25342;DHT22;13298;48.792;9.154;2023-05-07T09:10:21;21.90;99.90
25342;DHT22;13298;48.792;9.154;2023-05-07T09:12:47;22.10;99.90
25342;DHT22;13298;48.792;9.154;2023-05-07T09:15:13;22.10;99.90
25342;DHT22;13298;48.792;9.154;2023-05-07T09:17:39;22.00;99.90
25342;DHT22;13298;48.792;9.154;2023-05-07T09:20:06;22.00;99.90
25342;DHT22;13298;48.792;9.154;2023-05-07T09:22:35;22.10;99.90
25342;DHT22;13298;48.792;9.154;2023-05-07T09:25:02;22.10;99.90
25342;DHT22;13298;48.792;9.154;2023-05-07T09:27:28;22.00;99.90
25342;DHT22;13298;48.792;9.154;2023-05-07T09:29:53;22.00;99.90
25342;DHT22;13298;48.792;9.154;2023-05-07T09:32:19;22.10;99.90
25342;DHT22;13298;48.792;9.154;2023-05-07T09:34:45;22.20;99.90
25342;DHT22;13298;48.792;9.154;2023-05-07T09:37:13;22.20;99.90
25342;DHT22;13298;48.792;9.154;2023-05-07T09:39:44;22.20;99.90
25342;DHT22;13298;48.792;9.154;2023-05-07T09:42:11;22.20;99.90
25342;DHT22;13298;48.792;9.154;2023-05-07T09:44:38;22.20;99.90
25342;DHT22;13298;48.792;9.154;2023-05-07T09:47:07;22.30;99.90
25342;DHT22;13298;48.792;9.154;2023-05-07T09:49:35;22.40;99.90
25342;DHT22;13298;48.792;9.154;2023-05-07T09:52:03;22.50;99.90
25342;DHT22;13298;48.792;9.154;2023-05-07T09:54:36;22.40;99.90
25342;DHT22;13298;48.792;9.154;2023-05-07T09:57:04;22.40;99.90
25342;DHT22;13298;48.792;9.154;2023-05-07T09:59:32;22.50;99.90
25342;DHT22;13298;48.792;9.154;2023-05-07T10:01:59;22.50;99.90
25342;DHT22;13298;48.792;9.154;2023-05-07T10:04:26;22.60;99.90
25342;DHT22;13298;48.792;9.154;2023-05-07T10:06:52;22.60;99.90
25342;DHT22;13298;48.792;9.154;2023-05-07T10:09:20;22.70;99.90
25342;DHT22;13298;48.792;9.154;2023-05-07T10:11:46;22.70;99.90
25342;DHT22;13298;48.792;9.154;2023-05-07T10:14:14;22.80;99.90
25342;DHT22;13298;48.792;9.154;2023-05-07T10:16:41;22.90;99.90
25342;DHT22;13298;48.792;9.154;2023-05-07T10:19:08;23.00;99.90
25342;DHT22;13298;48.792;9.154;2023-05-07T10:21:37;23.10;99.90
25342;DHT22;13298;48.792;9.154;2023-05-07T10:24:08;23.30;99.00
25342;DHT22;13298;48.792;9.154;2023-05-07T10:26:44;23.40;98.70
25342;DHT22;13298;48.792;9.154;2023-05-07T10:29:25;23.60;99.10
25342;DHT22;13298;48.792;9.154;2023-05-07T10:32:19;23.80;97.80
25342;DHT22;13298;48.792;9.154;2023-05-07T10:35:17;24.10;98.00
25342;DHT22;13298;48.792;9.154;2023-05-07T10:37:46;24.40;98.40
25342;DHT22;13298;48.792;9.154;2023-05-07T10:40:12;24.70;97.90
25342;DHT22;13298;48.792;9.154;2023-05-07T10:42:39;25.00;96.70
25342;DHT22;13298;48.792;9.154;2023-05-07T10:45:25;25.10;95.20
25342;DHT22;13298;48.792;9.154;2023-05-07T10:50:43;24.90;95.50
25342;DHT22;13298;48.792;9.154;2023-05-07T10:55:48;24.80;94.80
25342;DHT22;13298;48.792;9.154;2023-05-07T10:58:27;24.80;95.40
25342;DHT22;13298;48.792;9.154;2023-05-07T11:01:03;25.00;95.30
25342;DHT22;13298;48.792;9.154;2023-05-07T11:03:29;25.20;94.90
25342;DHT22;13298;48.792;9.154;2023-05-07T11:06:15;25.30;94.80
25342;DHT22;13298;48.792;9.154;2023-05-07T11:08:57;25.40;94.00
25342;DHT22;13298;48.792;9.154;2023-05-07T11:11:48;25.60;93.80
25342;DHT22;13298;48.792;9.154;2023-05-07T11:17:11;25.70;92.70
25342;DHT22;13298;48.792;9.154;2023-05-07T11:25:05;25.40;92.30
25342;DHT22;13298;48.792;9.154;2023-05-07T11:27:32;25.30;93.10
25342;DHT22;13298;48.792;9.154;2023-05-07T11:29:58;25.30;92.00
25342;DHT22;13298;48.792;9.154;2023-05-07T11:32:26;25.20;91.90
25342;DHT22;13298;48.792;9.154;2023-05-07T11:34:53;25.20;92.10
25342;DHT22;13298;48.792;9.154;2023-05-07T11:37:20;25.00;91.70
25342;DHT22;13298;48.792;9.154;2023-05-07T11:39:47;24.90;92.00
25342;DHT22;13298;48.792;9.154;2023-05-07T11:42:29;24.80;93.40
25342;DHT22;13298;48.792;9.154;2023-05-07T11:44:57;24.50;93.00
25342;DHT22;13298;48.792;9.154;2023-05-07T11:47:24;24.20;94.70
25342;DHT22;13298;48.792;9.154;2023-05-07T11:49:54;24.00;95.00
25342;DHT22;13298;48.792;9.154;2023-05-07T11:52:24;23.70;95.30
25342;DHT22;13298;48.792;9.154;2023-05-07T11:54:54;23.40;97.40
25342;DHT22;13298;48.792;9.154;2023-05-07T11:57:22;22.70;99.90
25342;DHT22;13298;48.792;9.154;2023-05-07T11:59:48;22.10;99.90
25342;DHT22;13298;48.792;9.154;2023-05-07T12:02:18;21.60;99.90
25342;DHT22;13298;48.792;9.154;2023-05-07T12:04:44;21.00;99.90
25342;DHT22;13298;48.792;9.154;2023-05-07T12:07:14;20.60;99.90
25342;DHT22;13298;48.792;9.154;2023-05-07T12:09:41;20.20;99.90
25342;DHT22;13298;48.792;9.154;2023-05-07T12:12:07;19.90;99.90
25342;DHT22;13298;48.792;9.154;2023-05-07T12:14:37;19.70;99.90
25342;DHT22;13298;48.792;9.154;2023-05-07T12:17:07;19.40;99.90
25342;DHT22;13298;48.792;9.154;2023-05-07T12:19:35;18.90;99.90
25342;DHT22;13298;48.792;9.154;2023-05-07T12:22:02;18.70;99.90
25342;DHT22;13298;48.792;9.154;2023-05-07T12:24:28;18.40;99.90
25342;DHT22;13298;48.792;9.154;2023-05-07T12:26:54;18.10;99.90
25342;DHT22;13298;48.792;9.154;2023-05-07T12:29:23;17.80;99.90
25342;DHT22;13298;48.792;9.154;2023-05-07T12:31:52;17.60;99.90
25342;DHT22;13298;48.792;9.154;2023-05-07T12:34:18;17.30;99.90
25342;DHT22;13298;48.792;9.154;2023-05-07T12:36:43;17.00;99.90
25342;DHT22;13298;48.792;9.154;2023-05-07T12:39:09;16.80;99.90
25342;DHT22;13298;48.792;9.154;2023-05-07T12:41:54;16.50;99.90
25342;DHT22;13298;48.792;9.154;2023-05-07T12:44:25;16.40;99.90
25342;DHT22;13298;48.792;9.154;2023-05-07T12:46:55;16.20;99.90
25342;DHT22;13298;48.792;9.154;2023-05-07T12:49:21;16.10;99.90
25342;DHT22;13298;48.792;9.154;2023-05-07T12:51:47;16.00;99.90
25342;DHT22;13298;48.792;9.154;2023-05-07T12:54:14;15.80;99.90
25342;DHT22;13298;48.792;9.154;2023-05-07T12:57:01;15.70;99.90
25342;DHT22;13298;48.792;9.154;2023-05-07T12:59:37;15.50;99.90
25342;DHT22;13298;48.792;9.154;2023-05-07T13:02:04;15.50;99.90
25342;DHT22;13298;48.792;9.154;2023-05-07T13:04:30;15.40;99.90
25342;DHT22;13298;48.792;9.154;2023-05-07T13:06:56;15.50;99.90
25342;DHT22;13298;48.792;9.154;2023-05-07T13:09:22;15.40;99.90
25342;DHT22;13298;48.792;9.154;2023-05-07T13:11:47;15.40;99.90
25342;DHT22;13298;48.792;9.154;2023-05-07T13:14:13;15.40;99.90
25342;DHT22;13298;48.792;9.154;2023-05-07T13:16:39;15.30;99.90
25342;DHT22;13298;48.792;9.154;2023-05-07T13:19:04;15.30;99.90
25342;DHT22;13298;48.792;9.154;2023-05-07T13:21:30;15.20;99.90
25342;DHT22;13298;48.792;9.154;2023-05-07T13:23:58;15.10;99.90
25342;DHT22;13298;48.792;9.154;2023-05-07T13:26:25;15.10;99.90
25342;DHT22;13298;48.792;9.154;2023-05-07T13:28:54;15.10;99.90
25342;DHT22;13298;48.792;9.154;2023-05-07T13:31:20;15.10;99.90
25342;DHT22;13298;48.792;9.154;2023-05-07T13:33:46;15.10;99.90
25342;DHT22;13298;48.792;9.154;2023-05-07T13:36:12;15.00;99.90
25342;DHT22;13298;48.792;9.154;2023-05-07T13:38:39;15.00;99.90
25342;DHT22;13298;48.792;9.154;2023-05-07T13:41:05;15.00;99.90
25342;DHT22;13298;48.792;9.154;2023-05-07T13:43:30;15.10;99.90
25342;DHT22;13298;48.792;9.154;2023-05-07T13:45:59;15.10;99.90
25342;DHT22;13298;48.792;9.154;2023-05-07T13:48:24;15.10;99.90
25342;DHT22;13298;48.792;9.154;2023-05-07T13:50:50;15.20;99.90
25342;DHT22;13298;48.792;9.154;2023-05-07T13:53:16;15.30;99.90
25342;DHT22;13298;48.792;9.154;2023-05-07T13:55:46;15.30;99.90
25342;DHT22;13298;48.792;9.154;2023-05-07T13:58:11;15.40;99.90
25342;DHT22;13298;48.792;9.154;2023-05-07T14:00:37;15.50;99.90
25342;DHT22;13298;48.792;9.154;2023-05-07T14:03:04;15.50;99.90
25342;DHT22;13298;48.792;9.154;2023-05-07T14:05:30;15.60;99.90
25342;DHT22;13298;48.792;9.154;2023-05-07T14:07:57;15.60;99.90
25342;DHT22;13298;48.792;9.154;2023-05-07T14:10:23;15.60;99.90
25342;DHT22;13298;48.792;9.154;2023-05-07T14:12:49;15.60;99.90
25342;DHT22;13298;48.792;9.154;2023-05-07T14:15:15;15.70;99.90
25342;DHT22;13298;48.792;9.154;2023-05-07T14:17:42;15.70;99.90
25342;DHT22;13298;48.792;9.154;2023-05-07T14:20:08;15.80;99.90
25342;DHT22;13298;48.792;9.154;2023-05-07T14:22:35;15.80;99.90
25342;DHT22;13298;48.792;9.154;2023-05-07T14:25:01;15.80;99.90
25342;DHT22;13298;48.792;9.154;2023-05-07T14:27:27;15.70;99.90
25342;DHT22;13298;48.792;9.154;2023-05-07T14:29:52;15.70;99.90
25342;DHT22;13298;48.792;9.154;2023-05-07T14:32:18;15.60;99.90
25342;DHT22;13298;48.792;9.154;2023-05-07T14:34:45;15.60;99.90
25342;DHT22;13298;48.792;9.154;2023-05-07T14:37:10;15.60;99.90
25342;DHT22;13298;48.792;9.154;2023-05-07T14:39:36;15.60;99.90
25342;DHT22;13298;48.792;9.154;2023-05-07T14:42:02;15.60;99.90
25342;DHT22;13298;48.792;9.154;2023-05-07T14:44:28;15.50;99.90
25342;DHT22;13298;48.792;9.154;2023-05-07T14:46:54;15.50;99.90
25342;DHT22;13298;48.792;9.154;2023-05-07T14:49:20;15.50;99.90
25342;DHT22;13298;48.792;9.154;2023-05-07T14:51:47;15.50;99.90
25342;DHT22;13298;48.792;9.154;2023-05-07T14:54:13;15.50;99.90
25342;DHT22;13298;48.792;9.154;2023-05-07T14:56:40;15.50;99.90
25342;DHT22;13298;48.792;9.154;2023-05-07T14:59:07;15.50;99.90
25342;DHT22;13298;48.792;9.154;2023-05-07T15:01:34;15.50;99.90
25342;DHT22;13298;48.792;9.154;2023-05-07T15:04:02;15.60;99.90
25342;DHT22;13298;48.792;9.154;2023-05-07T15:06:28;15.60;99.90
25342;DHT22;13298;48.792;9.154;2023-05-07T15:08:54;15.60;99.90
25342;DHT22;13298;48.792;9.154;2023-05-07T15:11:20;15.70;99.90
25342;DHT22;13298;48.792;9.154;2023-05-07T15:13:46;15.80;99.90
25342;DHT22;13298;48.792;9.154;2023-05-07T15:16:11;15.90;99.90
25342;DHT22;13298;48.792;9.154;2023-05-07T15:18:37;15.90;99.90
25342;DHT22;13298;48.792;9.154;2023-05-07T15:21:03;16.00;99.90
25342;DHT22;13298;48.792;9.154;2023-05-07T15:23:28;16.00;99.90
25342;DHT22;13298;48.792;9.154;2023-05-07T15:25:54;16.10;99.90
25342;DHT22;13298;48.792;9.154;2023-05-07T15:28:20;16.10;99.90
25342;DHT22;13298;48.792;9.154;2023-05-07T15:30:46;16.10;99.90
25342;DHT22;13298;48.792;9.154;2023-05-07T15:33:11;16.20;99.90
25342;DHT22;13298;48.792;9.154;2023-05-07T15:35:37;16.20;99.90
25342;DHT22;13298;48.792;9.154;2023-05-07T15:38:03;16.40;99.90
25342;DHT22;13298;48.792;9.154;2023-05-07T15:40:29;16.50;99.90
25342;DHT22;13298;48.792;9.154;2023-05-07T15:42:56;16.60;99.90
25342;DHT22;13298;48.792;9.154;2023-05-07T15:45:22;16.70;99.90